Sagittarian — WCY5210 — position and weather

sailwx.info

Track history (hours):
 
Tides and Currents Weather Stations Pressure Air Temp Water Temp Dewpoint Dewpoint Depression Visibility Wind Speed Wind Dir Waves Ship Positions

Sagittarian

Owner: TAURUS MARINE, SAN FRANCISCO, CA. More information available from US FCC via Universal Licensing System and Coast Guard Vessel Documentation Center.

Last reported at 2017-Feb-22 17:07 UTC. Time now 2017-Feb-23 00:30 UTC.
Position N 37°46' W 122°23'.

; draft 3 m.

Type: Towing. MMSI: 366969510.

Date/timePositionNaut miles runAvg speedWind from/ knotsBaromVisibWave heightAir tempDewpointWater temp
2017-Feb-22 17:07N 37°46' W 122°23'1 1.0
2017-Feb-22 16:33N 37°46' W 122°23'0 0.1
2017-Feb-22 15:34N 37°46' W 122°23'1 0.7
2017-Feb-22 14:33N 37°46' W 122°23'0 0.0
2017-Feb-22 13:34N 37°46' W 122°23'0 0.0
2017-Feb-22 12:34N 37°46' W 122°23'7 7.0
2017-Feb-22 11:34N 37°49' W 122°31'4 3.5
2017-Feb-22 10:34N 37°50' W 122°27'6 5.9
2017-Feb-22 09:34N 37°55' W 122°25'0 0.1
2017-Feb-22 08:33N 37°55' W 122°25'1 1.3
2017-Feb-22 07:34N 37°54' W 122°26'3 3.4
2017-Feb-22 06:34N 37°51' W 122°24'5 0.5
2017-Feb-21 21:19N 37°46' W 122°23'6 8.4
2017-Feb-21 20:33N 37°53' W 122°24'2 1.7
2017-Feb-21 19:33N 37°54' W 122°24'2 1.9
2017-Feb-21 18:33N 37°55' W 122°22'8 7.8
2017-Feb-21 17:33N 37°47' W 122°23'1 1.2
2017-Feb-21 16:33N 37°46' W 122°23'1 0.7
2017-Feb-21 15:33N 37°47' W 122°23'0 0.0
2017-Feb-21 00:31N 37°46' W 122°23'0 0.0
2017-Feb-20 17:04N 37°46' W 122°23'1 0.0
2017-Feb-19 20:33N 37°47' W 122°23'8 7.7
2017-Feb-19 19:33N 37°55' W 122°22'3 2.8
2017-Feb-19 18:33N 37°55' W 122°25'9 7.3
2017-Feb-19 17:16N 38°03' W 122°18'3 0.2
2017-Feb-19 00:21N 38°05' W 122°15'1 1.4
2017-Feb-18 23:33N 38°04' W 122°15'2 2.0
2017-Feb-18 22:32N 38°03' W 122°18'3 3.5
2017-Feb-18 21:33N 38°02' W 122°22'3 3.3
2017-Feb-18 20:32N 37°60' W 122°25'3 3.2
2017-Feb-18 19:33N 37°57' W 122°26'3 3.2
2017-Feb-18 18:34N 37°54' W 122°24'7 0.3
2017-Feb-17 17:25N 37°46' W 122°23'6 7.1
2017-Feb-17 16:33N 37°53' W 122°24'3 2.7
2017-Feb-17 15:33N 37°55' W 122°25'1 0.9
2017-Feb-17 14:33N 37°55' W 122°26'0 0.0
2017-Feb-17 13:33N 37°55' W 122°26'5 4.0
2017-Feb-17 12:23N 37°60' W 122°25'11 3.7
2017-Feb-17 09:30N 38°03' W 122°12'0 0.0
2017-Feb-16 13:14N 38°03' W 122°12'5 7.0
2017-Feb-16 12:33N 38°03' W 122°18'8 6.8
2017-Feb-16 11:26N 37°59' W 122°26'5 6.1
2017-Feb-16 10:33N 37°54' W 122°22'1 1.4
2017-Feb-16 09:33N 37°54' W 122°24'7 7.2
2017-Feb-16 08:33N 37°46' W 122°23'0 0.0
2017-Feb-15 02:33N 37°47' W 122°23'8 7.7
2017-Feb-15 01:33N 37°54' W 122°22'1 0.6
2017-Feb-15 00:33N 37°54' W 122°23'2 1.5
2017-Feb-14 23:21N 37°55' W 122°25'1 1.4
2017-Feb-14 22:33N 37°54' W 122°25'8 8.0
2017-Feb-14 21:33N 37°46' W 122°23'0 0.0
2017-Feb-14 20:33N 37°46' W 122°23'0 0.0
2017-Feb-14 19:33N 37°46' W 122°23'0 0.0
2017-Feb-14 18:33N 37°46' W 122°23'0 0.0
2017-Feb-14 17:33N 37°46' W 122°23'0 0.0
2017-Feb-14 16:33N 37°46' W 122°23'0 0.0
2017-Feb-14 15:33N 37°46' W 122°23'0 0.0
2017-Feb-14 14:33N 37°46' W 122°23'0 0.0
2017-Feb-14 13:33N 37°46' W 122°23'0 0.0
2017-Feb-14 12:33N 37°46' W 122°23'0 0.0
2017-Feb-14 11:33N 37°46' W 122°23'0 0.0
2017-Feb-14 10:33N 37°46' W 122°23'0 0.0
2017-Feb-14 09:33N 37°46' W 122°23'0 0.0
2017-Feb-14 08:33N 37°46' W 122°23'0 0.0
2017-Feb-14 07:33N 37°46' W 122°23'0 0.0
2017-Feb-14 06:33N 37°46' W 122°23'2 2.0
2017-Feb-14 05:33N 37°48' W 122°23'6 6.0
2017-Feb-14 04:33N 37°54' W 122°24'1 0.9
2017-Feb-14 03:34N 37°54' W 122°25'3 2.8
2017-Feb-14 02:34N 37°51' W 122°24'1 0.5
2017-Feb-14 01:33N 37°51' W 122°24'4 4.2
2017-Feb-14 00:33N 37°46' W 122°23'  
Track history (hours):
 
Tides and Currents Weather Stations Pressure Air Temp Water Temp Dewpoint Dewpoint Depression Visibility Wind Speed Wind Dir Waves Ship Positions

Sagittarian

Owner: TAURUS MARINE, SAN FRANCISCO, CA. More information available from US FCC via Universal Licensing System and Coast Guard Vessel Documentation Center.

Last reported at 2017-Feb-22 17:07 UTC. Time now 2017-Feb-23 00:30 UTC.
Position N 37°46' W 122°23'.

; draft 3 m.

Type: Towing. MMSI: 366969510.

Date/timePositionNaut miles runAvg speedWind from/ knotsBaromVisibWave heightAir tempDewpointWater temp
2017-Feb-22 17:07N 37°46' W 122°23'1 1.0
2017-Feb-22 16:33N 37°46' W 122°23'0 0.1
2017-Feb-22 15:34N 37°46' W 122°23'1 0.7
2017-Feb-22 14:33N 37°46' W 122°23'0 0.0
2017-Feb-22 13:34N 37°46' W 122°23'0 0.0
2017-Feb-22 12:34N 37°46' W 122°23'7 7.0
2017-Feb-22 11:34N 37°49' W 122°31'4 3.5
2017-Feb-22 10:34N 37°50' W 122°27'6 5.9
2017-Feb-22 09:34N 37°55' W 122°25'0 0.1
2017-Feb-22 08:33N 37°55' W 122°25'1 1.3
2017-Feb-22 07:34N 37°54' W 122°26'3 3.4
2017-Feb-22 06:34N 37°51' W 122°24'5 0.5
2017-Feb-21 21:19N 37°46' W 122°23'6 8.4
2017-Feb-21 20:33N 37°53' W 122°24'2 1.7
2017-Feb-21 19:33N 37°54' W 122°24'2 1.9
2017-Feb-21 18:33N 37°55' W 122°22'8 7.8
2017-Feb-21 17:33N 37°47' W 122°23'1 1.2
2017-Feb-21 16:33N 37°46' W 122°23'1 0.7
2017-Feb-21 15:33N 37°47' W 122°23'0 0.0
2017-Feb-21 00:31N 37°46' W 122°23'0 0.0
2017-Feb-20 17:04N 37°46' W 122°23'1 0.0
2017-Feb-19 20:33N 37°47' W 122°23'8 7.7
2017-Feb-19 19:33N 37°55' W 122°22'3 2.8
2017-Feb-19 18:33N 37°55' W 122°25'9 7.3
2017-Feb-19 17:16N 38°03' W 122°18'3 0.2
2017-Feb-19 00:21N 38°05' W 122°15'1 1.4
2017-Feb-18 23:33N 38°04' W 122°15'2 2.0
2017-Feb-18 22:32N 38°03' W 122°18'3 3.5
2017-Feb-18 21:33N 38°02' W 122°22'3 3.3
2017-Feb-18 20:32N 37°60' W 122°25'3 3.2
2017-Feb-18 19:33N 37°57' W 122°26'3 3.2
2017-Feb-18 18:34N 37°54' W 122°24'7 0.3
2017-Feb-17 17:25N 37°46' W 122°23'6 7.1
2017-Feb-17 16:33N 37°53' W 122°24'3 2.7
2017-Feb-17 15:33N 37°55' W 122°25'1 0.9
2017-Feb-17 14:33N 37°55' W 122°26'0 0.0
2017-Feb-17 13:33N 37°55' W 122°26'5 4.0
2017-Feb-17 12:23N 37°60' W 122°25'11 3.7
2017-Feb-17 09:30N 38°03' W 122°12'0 0.0
2017-Feb-16 13:14N 38°03' W 122°12'5 7.0
2017-Feb-16 12:33N 38°03' W 122°18'8 6.8
2017-Feb-16 11:26N 37°59' W 122°26'5 6.1
2017-Feb-16 10:33N 37°54' W 122°22'1 1.4
2017-Feb-16 09:33N 37°54' W 122°24'7 7.2
2017-Feb-16 08:33N 37°46' W 122°23'0 0.0
2017-Feb-15 02:33N 37°47' W 122°23'8 7.7
2017-Feb-15 01:33N 37°54' W 122°22'1 0.6
2017-Feb-15 00:33N 37°54' W 122°23'2 1.5
2017-Feb-14 23:21N 37°55' W 122°25'1 1.4
2017-Feb-14 22:33N 37°54' W 122°25'8 8.0
2017-Feb-14 21:33N 37°46' W 122°23'0 0.0
2017-Feb-14 20:33N 37°46' W 122°23'0 0.0
2017-Feb-14 19:33N 37°46' W 122°23'0 0.0
2017-Feb-14 18:33N 37°46' W 122°23'0 0.0
2017-Feb-14 17:33N 37°46' W 122°23'0 0.0
2017-Feb-14 16:33N 37°46' W 122°23'0 0.0
2017-Feb-14 15:33N 37°46' W 122°23'0 0.0
2017-Feb-14 14:33N 37°46' W 122°23'0 0.0
2017-Feb-14 13:33N 37°46' W 122°23'0 0.0
2017-Feb-14 12:33N 37°46' W 122°23'0 0.0
2017-Feb-14 11:33N 37°46' W 122°23'0 0.0
2017-Feb-14 10:33N 37°46' W 122°23'0 0.0
2017-Feb-14 09:33N 37°46' W 122°23'0 0.0
2017-Feb-14 08:33N 37°46' W 122°23'0 0.0
2017-Feb-14 07:33N 37°46' W 122°23'0 0.0
2017-Feb-14 06:33N 37°46' W 122°23'2 2.0
2017-Feb-14 05:33N 37°48' W 122°23'6 6.0
2017-Feb-14 04:33N 37°54' W 122°24'1 0.9
2017-Feb-14 03:34N 37°54' W 122°25'3 2.8
2017-Feb-14 02:34N 37°51' W 122°24'1 0.5
2017-Feb-14 01:33N 37°51' W 122°24'4 4.2
2017-Feb-14 00:33N 37°46' W 122°23'  

Dump ship's entire track history